sensor_id;sensor_type;location;lat;lon;timestamp;P1;durP1;ratioP1;P2;durP2;ratioP2
77085;SDS011;66014;53.134;18.006;2023-10-31T00:02:03;24.80;;;11.60;;
77085;SDS011;66014;53.134;18.006;2023-10-31T00:04:29;16.90;;;11.00;;
77085;SDS011;66014;53.134;18.006;2023-10-31T00:06:56;20.00;;;12.10;;
77085;SDS011;66014;53.134;18.006;2023-10-31T00:09:22;20.30;;;10.80;;
77085;SDS011;66014;53.134;18.006;2023-10-31T00:11:48;21.00;;;11.80;;
77085;SDS011;66014;53.134;18.006;2023-10-31T00:14:17;23.30;;;12.00;;
77085;SDS011;66014;53.134;18.006;2023-10-31T00:16:43;18.90;;;10.70;;
77085;SDS011;66014;53.134;18.006;2023-10-31T00:19:10;18.40;;;11.20;;
77085;SDS011;66014;53.134;18.006;2023-10-31T00:21:36;20.60;;;11.80;;
77085;SDS011;66014;53.134;18.006;2023-10-31T00:24:03;16.70;;;9.90;;
77085;SDS011;66014;53.134;18.006;2023-10-31T00:26:29;20.90;;;11.00;;
77085;SDS011;66014;53.134;18.006;2023-10-31T00:28:56;19.30;;;11.00;;
77085;SDS011;66014;53.134;18.006;2023-10-31T00:31:22;19.00;;;10.60;;
77085;SDS011;66014;53.134;18.006;2023-10-31T00:33:49;24.60;;;12.40;;
77085;SDS011;66014;53.134;18.006;2023-10-31T00:36:15;20.70;;;11.40;;
77085;SDS011;66014;53.134;18.006;2023-10-31T00:38:42;21.10;;;11.50;;
77085;SDS011;66014;53.134;18.006;2023-10-31T00:41:08;23.90;;;11.80;;
77085;SDS011;66014;53.134;18.006;2023-10-31T00:43:35;26.70;;;11.60;;
77085;SDS011;66014;53.134;18.006;2023-10-31T00:46:02;22.00;;;12.20;;
77085;SDS011;66014;53.134;18.006;2023-10-31T00:48:29;22.90;;;12.00;;
77085;SDS011;66014;53.134;18.006;2023-10-31T00:50:56;26.50;;;12.40;;
77085;SDS011;66014;53.134;18.006;2023-10-31T00:53:22;31.10;;;14.10;;
77085;SDS011;66014;53.134;18.006;2023-10-31T00:55:48;27.00;;;11.90;;
77085;SDS011;66014;53.134;18.006;2023-10-31T00:58:15;26.70;;;12.90;;
77085;SDS011;66014;53.134;18.006;2023-10-31T01:00:41;25.20;;;11.70;;
77085;SDS011;66014;53.134;18.006;2023-10-31T01:03:08;19.00;;;10.80;;
77085;SDS011;66014;53.134;18.006;2023-10-31T01:05:34;26.50;;;12.60;;
77085;SDS011;66014;53.134;18.006;2023-10-31T01:08:01;19.70;;;11.10;;
77085;SDS011;66014;53.134;18.006;2023-10-31T01:10:27;23.50;;;12.00;;
77085;SDS011;66014;53.134;18.006;2023-10-31T01:12:54;20.40;;;11.90;;
77085;SDS011;66014;53.134;18.006;2023-10-31T01:15:20;23.40;;;12.00;;
77085;SDS011;66014;53.134;18.006;2023-10-31T01:17:47;22.60;;;12.80;;
77085;SDS011;66014;53.134;18.006;2023-10-31T01:20:13;22.30;;;11.30;;
77085;SDS011;66014;53.134;18.006;2023-10-31T01:22:40;20.90;;;12.40;;
77085;SDS011;66014;53.134;18.006;2023-10-31T01:25:06;25.20;;;11.80;;
77085;SDS011;66014;53.134;18.006;2023-10-31T01:27:33;21.80;;;11.10;;
77085;SDS011;66014;53.134;18.006;2023-10-31T01:29:59;23.60;;;12.30;;
77085;SDS011;66014;53.134;18.006;2023-10-31T01:32:26;17.80;;;10.70;;
77085;SDS011;66014;53.134;18.006;2023-10-31T01:34:52;24.30;;;11.40;;
77085;SDS011;66014;53.134;18.006;2023-10-31T01:37:19;18.40;;;11.00;;
77085;SDS011;66014;53.134;18.006;2023-10-31T01:39:47;22.20;;;11.40;;
77085;SDS011;66014;53.134;18.006;2023-10-31T01:42:16;21.80;;;12.10;;
77085;SDS011;66014;53.134;18.006;2023-10-31T01:44:43;21.60;;;11.20;;
77085;SDS011;66014;53.134;18.006;2023-10-31T01:47:10;23.20;;;11.00;;
77085;SDS011;66014;53.134;18.006;2023-10-31T01:49:38;18.40;;;10.90;;
77085;SDS011;66014;53.134;18.006;2023-10-31T01:52:05;25.30;;;11.50;;
77085;SDS011;66014;53.134;18.006;2023-10-31T01:54:37;21.00;;;11.50;;
77085;SDS011;66014;53.134;18.006;2023-10-31T01:57:06;21.70;;;11.30;;
77085;SDS011;66014;53.134;18.006;2023-10-31T01:59:32;19.20;;;11.30;;
77085;SDS011;66014;53.134;18.006;2023-10-31T02:01:59;18.80;;;11.80;;
77085;SDS011;66014;53.134;18.006;2023-10-31T02:04:27;21.00;;;11.20;;
77085;SDS011;66014;53.134;18.006;2023-10-31T02:06:55;25.00;;;12.90;;
77085;SDS011;66014;53.134;18.006;2023-10-31T02:09:22;22.70;;;12.80;;
77085;SDS011;66014;53.134;18.006;2023-10-31T02:11:51;24.20;;;10.90;;
77085;SDS011;66014;53.134;18.006;2023-10-31T02:14:21;19.80;;;11.60;;
77085;SDS011;66014;53.134;18.006;2023-10-31T02:16:48;21.50;;;11.80;;
77085;SDS011;66014;53.134;18.006;2023-10-31T02:19:16;17.90;;;10.50;;
77085;SDS011;66014;53.134;18.006;2023-10-31T02:21:46;18.60;;;11.00;;
77085;SDS011;66014;53.134;18.006;2023-10-31T02:24:13;20.30;;;11.20;;
77085;SDS011;66014;53.134;18.006;2023-10-31T02:26:39;22.10;;;10.70;;
77085;SDS011;66014;53.134;18.006;2023-10-31T02:29:06;18.70;;;10.20;;
77085;SDS011;66014;53.134;18.006;2023-10-31T02:31:33;18.40;;;10.90;;
77085;SDS011;66014;53.134;18.006;2023-10-31T02:33:59;17.90;;;10.50;;
77085;SDS011;66014;53.134;18.006;2023-10-31T02:36:25;20.60;;;9.50;;
77085;SDS011;66014;53.134;18.006;2023-10-31T02:38:52;18.90;;;10.70;;
77085;SDS011;66014;53.134;18.006;2023-10-31T02:41:19;17.50;;;10.30;;
77085;SDS011;66014;53.134;18.006;2023-10-31T02:43:45;21.00;;;10.30;;
77085;SDS011;66014;53.134;18.006;2023-10-31T02:46:12;19.20;;;10.00;;
77085;SDS011;66014;53.134;18.006;2023-10-31T02:48:48;16.50;;;10.00;;
77085;SDS011;66014;53.134;18.006;2023-10-31T02:51:15;16.70;;;10.00;;
77085;SDS011;66014;53.134;18.006;2023-10-31T02:53:41;23.90;;;10.80;;
77085;SDS011;66014;53.134;18.006;2023-10-31T02:56:08;17.70;;;9.20;;
77085;SDS011;66014;53.134;18.006;2023-10-31T02:58:35;18.60;;;9.80;;
77085;SDS011;66014;53.134;18.006;2023-10-31T03:01:01;16.10;;;9.00;;
77085;SDS011;66014;53.134;18.006;2023-10-31T03:03:28;16.50;;;10.00;;
77085;SDS011;66014;53.134;18.006;2023-10-31T03:05:55;14.60;;;9.10;;
77085;SDS011;66014;53.134;18.006;2023-10-31T03:08:21;16.40;;;9.40;;
77085;SDS011;66014;53.134;18.006;2023-10-31T03:10:49;21.40;;;10.60;;
77085;SDS011;66014;53.134;18.006;2023-10-31T03:13:18;19.20;;;9.70;;
77085;SDS011;66014;53.134;18.006;2023-10-31T03:15:45;19.40;;;9.50;;
77085;SDS011;66014;53.134;18.006;2023-10-31T03:18:12;18.00;;;9.60;;
77085;SDS011;66014;53.134;18.006;2023-10-31T03:20:43;15.70;;;8.50;;
77085;SDS011;66014;53.134;18.006;2023-10-31T03:23:12;18.30;;;8.50;;
77085;SDS011;66014;53.134;18.006;2023-10-31T03:25:39;17.40;;;7.70;;
77085;SDS011;66014;53.134;18.006;2023-10-31T03:28:09;14.90;;;8.90;;
77085;SDS011;66014;53.134;18.006;2023-10-31T03:30:46;18.00;;;8.50;;
77085;SDS011;66014;53.134;18.006;2023-10-31T03:33:13;13.80;;;7.10;;
77085;SDS011;66014;53.134;18.006;2023-10-31T03:35:40;16.70;;;7.80;;
77085;SDS011;66014;53.134;18.006;2023-10-31T03:38:07;13.60;;;6.50;;
77085;SDS011;66014;53.134;18.006;2023-10-31T03:40:33;15.90;;;7.30;;
77085;SDS011;66014;53.134;18.006;2023-10-31T03:43:00;15.50;;;7.90;;
77085;SDS011;66014;53.134;18.006;2023-10-31T03:45:26;18.70;;;8.30;;
77085;SDS011;66014;53.134;18.006;2023-10-31T03:47:53;13.90;;;7.60;;
77085;SDS011;66014;53.134;18.006;2023-10-31T03:50:19;16.50;;;7.00;;
77085;SDS011;66014;53.134;18.006;2023-10-31T03:52:46;14.30;;;8.10;;
77085;SDS011;66014;53.134;18.006;2023-10-31T03:55:12;15.90;;;7.40;;
77085;SDS011;66014;53.134;18.006;2023-10-31T03:57:39;13.90;;;7.00;;
77085;SDS011;66014;53.134;18.006;2023-10-31T04:00:05;13.20;;;6.70;;
77085;SDS011;66014;53.134;18.006;2023-10-31T04:02:33;12.30;;;6.30;;
77085;SDS011;66014;53.134;18.006;2023-10-31T04:04:59;15.60;;;7.50;;
77085;SDS011;66014;53.134;18.006;2023-10-31T04:07:26;11.70;;;7.10;;
77085;SDS011;66014;53.134;18.006;2023-10-31T04:09:52;15.40;;;7.20;;
77085;SDS011;66014;53.134;18.006;2023-10-31T04:12:20;11.40;;;7.20;;
77085;SDS011;66014;53.134;18.006;2023-10-31T04:14:46;16.50;;;7.40;;
77085;SDS011;66014;53.134;18.006;2023-10-31T04:17:13;15.50;;;6.90;;
77085;SDS011;66014;53.134;18.006;2023-10-31T04:19:39;12.10;;;6.60;;
77085;SDS011;66014;53.134;18.006;2023-10-31T04:22:06;12.70;;;6.80;;
77085;SDS011;66014;53.134;18.006;2023-10-31T04:24:32;13.30;;;7.50;;
77085;SDS011;66014;53.134;18.006;2023-10-31T04:26:59;11.40;;;6.90;;
77085;SDS011;66014;53.134;18.006;2023-10-31T04:29:37;13.80;;;6.50;;
77085;SDS011;66014;53.134;18.006;2023-10-31T04:32:04;10.60;;;6.00;;
77085;SDS011;66014;53.134;18.006;2023-10-31T04:34:31;12.30;;;7.00;;
77085;SDS011;66014;53.134;18.006;2023-10-31T04:36:57;13.60;;;6.80;;
77085;SDS011;66014;53.134;18.006;2023-10-31T04:39:24;12.60;;;6.20;;
77085;SDS011;66014;53.134;18.006;2023-10-31T04:41:50;17.10;;;6.60;;
77085;SDS011;66014;53.134;18.006;2023-10-31T04:44:17;10.10;;;5.90;;
77085;SDS011;66014;53.134;18.006;2023-10-31T04:46:43;15.00;;;6.20;;
77085;SDS011;66014;53.134;18.006;2023-10-31T04:49:10;11.40;;;6.10;;
77085;SDS011;66014;53.134;18.006;2023-10-31T04:51:37;10.20;;;6.60;;
77085;SDS011;66014;53.134;18.006;2023-10-31T04:54:04;12.40;;;6.10;;
77085;SDS011;66014;53.134;18.006;2023-10-31T04:56:31;11.50;;;6.90;;
77085;SDS011;66014;53.134;18.006;2023-10-31T04:58:57;12.30;;;6.30;;
77085;SDS011;66014;53.134;18.006;2023-10-31T05:01:24;12.30;;;6.10;;
77085;SDS011;66014;53.134;18.006;2023-10-31T05:03:51;15.50;;;6.70;;
77085;SDS011;66014;53.134;18.006;2023-10-31T05:06:19;11.30;;;5.40;;
77085;SDS011;66014;53.134;18.006;2023-10-31T05:08:47;12.70;;;6.10;;
77085;SDS011;66014;53.134;18.006;2023-10-31T05:11:16;13.80;;;6.00;;
77085;SDS011;66014;53.134;18.006;2023-10-31T05:13:47;13.20;;;6.00;;
77085;SDS011;66014;53.134;18.006;2023-10-31T05:16:13;10.60;;;5.70;;
77085;SDS011;66014;53.134;18.006;2023-10-31T05:18:40;12.60;;;6.20;;
77085;SDS011;66014;53.134;18.006;2023-10-31T05:21:07;12.50;;;5.90;;
77085;SDS011;66014;53.134;18.006;2023-10-31T05:23:33;12.00;;;5.70;;
77085;SDS011;66014;53.134;18.006;2023-10-31T05:26:00;13.20;;;6.50;;
77085;SDS011;66014;53.134;18.006;2023-10-31T05:28:31;11.50;;;6.10;;
77085;SDS011;66014;53.134;18.006;2023-10-31T05:30:57;12.90;;;5.50;;
77085;SDS011;66014;53.134;18.006;2023-10-31T05:33:24;12.70;;;5.60;;
77085;SDS011;66014;53.134;18.006;2023-10-31T05:35:50;10.10;;;5.80;;
77085;SDS011;66014;53.134;18.006;2023-10-31T05:38:17;11.90;;;5.50;;
77085;SDS011;66014;53.134;18.006;2023-10-31T05:40:43;15.40;;;6.90;;
77085;SDS011;66014;53.134;18.006;2023-10-31T05:43:10;8.80;;;5.10;;
77085;SDS011;66014;53.134;18.006;2023-10-31T05:45:36;10.20;;;5.20;;
77085;SDS011;66014;53.134;18.006;2023-10-31T05:48:03;11.20;;;5.10;;
77085;SDS011;66014;53.134;18.006;2023-10-31T05:50:29;10.30;;;5.70;;
77085;SDS011;66014;53.134;18.006;2023-10-31T05:52:56;9.40;;;5.30;;
77085;SDS011;66014;53.134;18.006;2023-10-31T05:55:23;13.40;;;6.00;;
77085;SDS011;66014;53.134;18.006;2023-10-31T05:57:49;10.40;;;5.50;;
77085;SDS011;66014;53.134;18.006;2023-10-31T06:00:16;14.20;;;6.10;;
77085;SDS011;66014;53.134;18.006;2023-10-31T06:02:43;10.50;;;5.50;;
77085;SDS011;66014;53.134;18.006;2023-10-31T06:05:10;10.90;;;5.10;;
77085;SDS011;66014;53.134;18.006;2023-10-31T06:07:37;15.10;;;5.70;;
77085;SDS011;66014;53.134;18.006;2023-10-31T06:10:03;11.50;;;5.10;;
77085;SDS011;66014;53.134;18.006;2023-10-31T06:12:30;14.20;;;5.60;;
77085;SDS011;66014;53.134;18.006;2023-10-31T06:14:57;9.20;;;4.60;;
77085;SDS011;66014;53.134;18.006;2023-10-31T06:17:24;10.30;;;5.00;;
77085;SDS011;66014;53.134;18.006;2023-10-31T06:19:54;14.30;;;6.50;;
77085;SDS011;66014;53.134;18.006;2023-10-31T06:22:21;12.80;;;6.20;;
77085;SDS011;66014;53.134;18.006;2023-10-31T06:24:47;13.40;;;5.70;;
77085;SDS011;66014;53.134;18.006;2023-10-31T06:27:14;11.80;;;5.60;;
77085;SDS011;66014;53.134;18.006;2023-10-31T06:29:40;10.10;;;5.00;;
77085;SDS011;66014;53.134;18.006;2023-10-31T06:32:07;12.30;;;5.90;;
77085;SDS011;66014;53.134;18.006;2023-10-31T06:34:37;8.00;;;5.00;;
77085;SDS011;66014;53.134;18.006;2023-10-31T06:37:03;11.90;;;6.90;;
77085;SDS011;66014;53.134;18.006;2023-10-31T06:39:30;11.50;;;5.40;;
77085;SDS011;66014;53.134;18.006;2023-10-31T06:41:57;10.90;;;5.10;;
77085;SDS011;66014;53.134;18.006;2023-10-31T06:44:24;12.70;;;6.90;;
77085;SDS011;66014;53.134;18.006;2023-10-31T06:46:50;10.60;;;5.40;;
77085;SDS011;66014;53.134;18.006;2023-10-31T06:49:17;11.50;;;6.00;;
77085;SDS011;66014;53.134;18.006;2023-10-31T06:51:43;11.50;;;4.80;;
77085;SDS011;66014;53.134;18.006;2023-10-31T06:54:11;14.00;;;6.20;;
77085;SDS011;66014;53.134;18.006;2023-10-31T06:56:38;11.60;;;5.30;;
77085;SDS011;66014;53.134;18.006;2023-10-31T06:59:05;13.00;;;5.30;;
77085;SDS011;66014;53.134;18.006;2023-10-31T07:01:32;10.50;;;4.80;;
77085;SDS011;66014;53.134;18.006;2023-10-31T07:03:58;29.50;;;13.50;;
77085;SDS011;66014;53.134;18.006;2023-10-31T07:06:26;20.20;;;11.50;;
77085;SDS011;66014;53.134;18.006;2023-10-31T07:08:52;36.80;;;20.10;;
77085;SDS011;66014;53.134;18.006;2023-10-31T07:11:18;17.80;;;8.90;;
77085;SDS011;66014;53.134;18.006;2023-10-31T07:13:46;28.60;;;17.20;;
77085;SDS011;66014;53.134;18.006;2023-10-31T07:16:12;32.00;;;24.00;;
77085;SDS011;66014;53.134;18.006;2023-10-31T07:18:39;45.70;;;31.30;;
77085;SDS011;66014;53.134;18.006;2023-10-31T07:21:05;57.00;;;41.10;;
77085;SDS011;66014;53.134;18.006;2023-10-31T07:23:32;74.00;;;52.20;;
77085;SDS011;66014;53.134;18.006;2023-10-31T07:25:58;28.50;;;19.90;;
77085;SDS011;66014;53.134;18.006;2023-10-31T07:28:25;15.10;;;8.00;;
77085;SDS011;66014;53.134;18.006;2023-10-31T07:30:51;17.80;;;11.50;;
77085;SDS011;66014;53.134;18.006;2023-10-31T07:33:20;25.40;;;19.50;;
77085;SDS011;66014;53.134;18.006;2023-10-31T07:35:47;33.80;;;26.20;;
77085;SDS011;66014;53.134;18.006;2023-10-31T07:38:13;20.40;;;15.80;;
77085;SDS011;66014;53.134;18.006;2023-10-31T07:40:41;11.10;;;6.00;;
77085;SDS011;66014;53.134;18.006;2023-10-31T07:43:07;9.00;;;5.60;;
77085;SDS011;66014;53.134;18.006;2023-10-31T07:45:34;8.90;;;5.20;;
77085;SDS011;66014;53.134;18.006;2023-10-31T07:48:01;8.90;;;3.60;;
77085;SDS011;66014;53.134;18.006;2023-10-31T07:50:28;10.50;;;5.00;;
77085;SDS011;66014;53.134;18.006;2023-10-31T07:52:55;10.80;;;4.90;;
77085;SDS011;66014;53.134;18.006;2023-10-31T07:55:21;9.90;;;5.00;;
77085;SDS011;66014;53.134;18.006;2023-10-31T07:57:47;11.40;;;5.20;;
77085;SDS011;66014;53.134;18.006;2023-10-31T08:00:15;16.50;;;5.70;;
77085;SDS011;66014;53.134;18.006;2023-10-31T08:02:41;11.10;;;5.20;;
77085;SDS011;66014;53.134;18.006;2023-10-31T08:05:09;11.20;;;5.00;;
77085;SDS011;66014;53.134;18.006;2023-10-31T08:07:36;9.20;;;4.90;;
77085;SDS011;66014;53.134;18.006;2023-10-31T08:10:03;7.30;;;4.50;;
77085;SDS011;66014;53.134;18.006;2023-10-31T08:12:31;11.70;;;4.90;;
77085;SDS011;66014;53.134;18.006;2023-10-31T08:14:57;6.40;;;4.10;;
77085;SDS011;66014;53.134;18.006;2023-10-31T08:17:25;9.90;;;4.70;;
77085;SDS011;66014;53.134;18.006;2023-10-31T08:19:52;10.60;;;5.10;;
77085;SDS011;66014;53.134;18.006;2023-10-31T08:22:18;7.40;;;4.70;;
77085;SDS011;66014;53.134;18.006;2023-10-31T08:24:46;11.90;;;6.70;;
77085;SDS011;66014;53.134;18.006;2023-10-31T08:27:13;9.20;;;5.00;;
77085;SDS011;66014;53.134;18.006;2023-10-31T08:29:40;10.30;;;5.00;;
77085;SDS011;66014;53.134;18.006;2023-10-31T08:32:07;11.40;;;5.10;;
77085;SDS011;66014;53.134;18.006;2023-10-31T08:34:36;10.90;;;6.30;;
77085;SDS011;66014;53.134;18.006;2023-10-31T08:37:04;14.00;;;6.00;;
77085;SDS011;66014;53.134;18.006;2023-10-31T08:39:30;9.00;;;5.00;;
77085;SDS011;66014;53.134;18.006;2023-10-31T08:41:57;10.00;;;6.50;;
77085;SDS011;66014;53.134;18.006;2023-10-31T08:44:24;11.00;;;6.30;;
77085;SDS011;66014;53.134;18.006;2023-10-31T08:46:51;8.70;;;5.00;;
77085;SDS011;66014;53.134;18.006;2023-10-31T08:49:18;12.00;;;7.10;;
77085;SDS011;66014;53.134;18.006;2023-10-31T08:51:46;14.00;;;7.40;;
77085;SDS011;66014;53.134;18.006;2023-10-31T08:54:13;13.70;;;8.30;;
77085;SDS011;66014;53.134;18.006;2023-10-31T08:56:40;12.70;;;7.20;;
77085;SDS011;66014;53.134;18.006;2023-10-31T08:59:06;11.40;;;6.20;;
77085;SDS011;66014;53.134;18.006;2023-10-31T09:01:33;13.20;;;7.60;;
77085;SDS011;66014;53.134;18.006;2023-10-31T09:04:00;12.20;;;7.30;;
77085;SDS011;66014;53.134;18.006;2023-10-31T09:06:27;15.50;;;9.90;;
77085;SDS011;66014;53.134;18.006;2023-10-31T09:08:53;15.50;;;10.00;;
77085;SDS011;66014;53.134;18.006;2023-10-31T09:11:20;16.40;;;10.70;;
77085;SDS011;66014;53.134;18.006;2023-10-31T09:13:49;13.60;;;9.10;;
77085;SDS011;66014;53.134;18.006;2023-10-31T09:16:15;15.90;;;9.20;;
77085;SDS011;66014;53.134;18.006;2023-10-31T09:18:42;12.60;;;7.20;;
77085;SDS011;66014;53.134;18.006;2023-10-31T09:21:09;14.10;;;7.70;;
77085;SDS011;66014;53.134;18.006;2023-10-31T09:23:38;12.60;;;8.30;;
77085;SDS011;66014;53.134;18.006;2023-10-31T09:26:05;13.30;;;7.50;;
77085;SDS011;66014;53.134;18.006;2023-10-31T09:28:31;16.20;;;9.80;;
77085;SDS011;66014;53.134;18.006;2023-10-31T09:30:57;18.30;;;9.20;;
77085;SDS011;66014;53.134;18.006;2023-10-31T09:33:26;13.90;;;7.70;;
77085;SDS011;66014;53.134;18.006;2023-10-31T09:35:52;19.00;;;10.70;;
77085;SDS011;66014;53.134;18.006;2023-10-31T09:38:19;17.00;;;9.00;;
77085;SDS011;66014;53.134;18.006;2023-10-31T09:40:45;15.70;;;8.80;;
77085;SDS011;66014;53.134;18.006;2023-10-31T09:43:12;12.50;;;7.40;;
77085;SDS011;66014;53.134;18.006;2023-10-31T09:45:38;13.70;;;7.10;;
77085;SDS011;66014;53.134;18.006;2023-10-31T09:48:05;14.50;;;8.10;;
77085;SDS011;66014;53.134;18.006;2023-10-31T09:50:32;12.90;;;7.20;;
77085;SDS011;66014;53.134;18.006;2023-10-31T09:52:59;12.80;;;7.90;;
77085;SDS011;66014;53.134;18.006;2023-10-31T09:55:26;18.20;;;12.40;;
77085;SDS011;66014;53.134;18.006;2023-10-31T09:57:52;16.40;;;10.10;;
77085;SDS011;66014;53.134;18.006;2023-10-31T10:00:22;12.80;;;6.90;;
77085;SDS011;66014;53.134;18.006;2023-10-31T10:02:49;17.00;;;8.30;;
77085;SDS011;66014;53.134;18.006;2023-10-31T10:05:16;13.30;;;6.90;;
77085;SDS011;66014;53.134;18.006;2023-10-31T10:07:43;11.60;;;5.60;;
77085;SDS011;66014;53.134;18.006;2023-10-31T10:10:11;13.20;;;7.70;;
77085;SDS011;66014;53.134;18.006;2023-10-31T10:12:41;9.00;;;5.60;;
77085;SDS011;66014;53.134;18.006;2023-10-31T10:15:10;8.60;;;4.70;;
77085;SDS011;66014;53.134;18.006;2023-10-31T10:17:38;7.20;;;4.90;;
77085;SDS011;66014;53.134;18.006;2023-10-31T10:20:09;9.80;;;5.70;;
77085;SDS011;66014;53.134;18.006;2023-10-31T10:22:37;9.30;;;5.30;;
77085;SDS011;66014;53.134;18.006;2023-10-31T10:25:11;7.00;;;4.60;;
77085;SDS011;66014;53.134;18.006;2023-10-31T10:27:40;7.40;;;4.80;;
77085;SDS011;66014;53.134;18.006;2023-10-31T10:30:08;8.10;;;5.20;;
77085;SDS011;66014;53.134;18.006;2023-10-31T10:32:35;10.30;;;5.40;;
77085;SDS011;66014;53.134;18.006;2023-10-31T10:35:01;7.10;;;4.90;;
77085;SDS011;66014;53.134;18.006;2023-10-31T10:37:28;8.40;;;5.10;;
77085;SDS011;66014;53.134;18.006;2023-10-31T10:39:56;7.70;;;4.90;;
77085;SDS011;66014;53.134;18.006;2023-10-31T10:42:32;8.70;;;5.90;;
77085;SDS011;66014;53.134;18.006;2023-10-31T10:45:03;8.30;;;5.40;;
77085;SDS011;66014;53.134;18.006;2023-10-31T10:47:34;8.60;;;5.40;;
77085;SDS011;66014;53.134;18.006;2023-10-31T10:50:04;10.20;;;5.70;;
77085;SDS011;66014;53.134;18.006;2023-10-31T10:52:35;11.30;;;6.00;;
77085;SDS011;66014;53.134;18.006;2023-10-31T10:55:12;13.50;;;6.90;;
77085;SDS011;66014;53.134;18.006;2023-10-31T11:00:22;10.60;;;6.00;;
77085;SDS011;66014;53.134;18.006;2023-10-31T11:02:51;8.80;;;5.30;;
77085;SDS011;66014;53.134;18.006;2023-10-31T11:05:25;9.40;;;6.10;;
77085;SDS011;66014;53.134;18.006;2023-10-31T11:07:52;11.50;;;6.40;;
77085;SDS011;66014;53.134;18.006;2023-10-31T11:10:21;8.30;;;5.40;;
77085;SDS011;66014;53.134;18.006;2023-10-31T11:12:48;12.20;;;6.70;;
77085;SDS011;66014;53.134;18.006;2023-10-31T11:15:17;11.20;;;6.70;;
77085;SDS011;66014;53.134;18.006;2023-10-31T11:17:44;10.40;;;6.60;;
77085;SDS011;66014;53.134;18.006;2023-10-31T11:20:16;11.50;;;6.80;;
77085;SDS011;66014;53.134;18.006;2023-10-31T11:22:44;12.00;;;6.90;;
77085;SDS011;66014;53.134;18.006;2023-10-31T11:25:16;10.70;;;6.60;;
77085;SDS011;66014;53.134;18.006;2023-10-31T11:27:46;9.80;;;6.40;;
77085;SDS011;66014;53.134;18.006;2023-10-31T11:30:26;10.60;;;6.20;;
77085;SDS011;66014;53.134;18.006;2023-10-31T11:32:55;11.70;;;7.60;;
77085;SDS011;66014;53.134;18.006;2023-10-31T11:35:24;10.90;;;6.30;;
77085;SDS011;66014;53.134;18.006;2023-10-31T11:38:09;14.80;;;9.80;;
77085;SDS011;66014;53.134;18.006;2023-10-31T11:43:10;8.10;;;4.80;;
77085;SDS011;66014;53.134;18.006;2023-10-31T11:45:41;7.20;;;4.60;;
77085;SDS011;66014;53.134;18.006;2023-10-31T11:48:13;6.70;;;4.60;;
77085;SDS011;66014;53.134;18.006;2023-10-31T11:50:40;7.40;;;4.60;;
77085;SDS011;66014;53.134;18.006;2023-10-31T11:53:08;10.70;;;5.10;;
77085;SDS011;66014;53.134;18.006;2023-10-31T11:55:42;9.90;;;4.70;;
77085;SDS011;66014;53.134;18.006;2023-10-31T12:00:44;7.00;;;4.20;;
77085;SDS011;66014;53.134;18.006;2023-10-31T12:03:19;8.60;;;6.10;;
77085;SDS011;66014;53.134;18.006;2023-10-31T12:05:51;6.70;;;5.10;;
77085;SDS011;66014;53.134;18.006;2023-10-31T12:11:02;5.10;;;3.70;;
77085;SDS011;66014;53.134;18.006;2023-10-31T12:13:34;11.20;;;8.20;;
77085;SDS011;66014;53.134;18.006;2023-10-31T12:16:03;9.40;;;7.40;;
77085;SDS011;66014;53.134;18.006;2023-10-31T12:18:33;10.00;;;7.40;;
77085;SDS011;66014;53.134;18.006;2023-10-31T12:21:01;5.60;;;3.70;;
77085;SDS011;66014;53.134;18.006;2023-10-31T12:23:28;5.70;;;3.60;;
77085;SDS011;66014;53.134;18.006;2023-10-31T12:25:57;5.20;;;3.00;;
77085;SDS011;66014;53.134;18.006;2023-10-31T12:28:24;5.40;;;3.40;;
77085;SDS011;66014;53.134;18.006;2023-10-31T12:30:52;8.90;;;6.60;;
77085;SDS011;66014;53.134;18.006;2023-10-31T12:33:25;5.90;;;4.10;;
77085;SDS011;66014;53.134;18.006;2023-10-31T12:35:56;5.70;;;3.70;;
77085;SDS011;66014;53.134;18.006;2023-10-31T12:38:24;6.00;;;3.10;;
77085;SDS011;66014;53.134;18.006;2023-10-31T12:40:51;3.90;;;2.50;;
77085;SDS011;66014;53.134;18.006;2023-10-31T12:43:18;5.80;;;2.90;;
77085;SDS011;66014;53.134;18.006;2023-10-31T12:45:45;4.40;;;2.60;;
77085;SDS011;66014;53.134;18.006;2023-10-31T12:48:12;5.00;;;3.50;;
77085;SDS011;66014;53.134;18.006;2023-10-31T12:50:38;4.20;;;2.40;;
77085;SDS011;66014;53.134;18.006;2023-10-31T12:55:39;4.30;;;2.70;;
77085;SDS011;66014;53.134;18.006;2023-10-31T12:58:07;4.60;;;2.40;;
77085;SDS011;66014;53.134;18.006;2023-10-31T13:00:38;3.80;;;2.40;;
77085;SDS011;66014;53.134;18.006;2023-10-31T13:03:06;4.30;;;2.60;;
77085;SDS011;66014;53.134;18.006;2023-10-31T13:05:38;3.90;;;2.10;;
77085;SDS011;66014;53.134;18.006;2023-10-31T13:08:10;3.80;;;1.70;;
77085;SDS011;66014;53.134;18.006;2023-10-31T13:10:43;3.60;;;1.90;;
77085;SDS011;66014;53.134;18.006;2023-10-31T13:13:09;5.80;;;2.20;;
77085;SDS011;66014;53.134;18.006;2023-10-31T13:15:38;4.30;;;2.40;;
77085;SDS011;66014;53.134;18.006;2023-10-31T13:18:04;6.10;;;2.20;;
77085;SDS011;66014;53.134;18.006;2023-10-31T13:20:31;5.30;;;2.40;;
77085;SDS011;66014;53.134;18.006;2023-10-31T13:22:58;5.20;;;3.10;;
77085;SDS011;66014;53.134;18.006;2023-10-31T13:25:28;3.40;;;1.60;;
77085;SDS011;66014;53.134;18.006;2023-10-31T13:27:55;3.70;;;1.60;;
77085;SDS011;66014;53.134;18.006;2023-10-31T13:30:23;2.70;;;1.60;;
77085;SDS011;66014;53.134;18.006;2023-10-31T13:32:52;5.40;;;1.80;;
77085;SDS011;66014;53.134;18.006;2023-10-31T13:35:19;3.70;;;2.20;;
77085;SDS011;66014;53.134;18.006;2023-10-31T13:37:46;3.80;;;1.90;;
77085;SDS011;66014;53.134;18.006;2023-10-31T13:40:12;3.40;;;2.10;;
77085;SDS011;66014;53.134;18.006;2023-10-31T13:42:39;5.00;;;2.40;;
77085;SDS011;66014;53.134;18.006;2023-10-31T13:45:06;4.90;;;2.90;;
77085;SDS011;66014;53.134;18.006;2023-10-31T13:47:33;6.70;;;4.10;;
77085;SDS011;66014;53.134;18.006;2023-10-31T13:49:59;5.40;;;2.80;;
77085;SDS011;66014;53.134;18.006;2023-10-31T13:52:27;4.00;;;2.30;;
77085;SDS011;66014;53.134;18.006;2023-10-31T13:54:54;4.80;;;2.30;;
77085;SDS011;66014;53.134;18.006;2023-10-31T13:57:20;4.90;;;1.90;;
77085;SDS011;66014;53.134;18.006;2023-10-31T13:59:49;3.90;;;2.00;;
77085;SDS011;66014;53.134;18.006;2023-10-31T14:02:18;6.10;;;3.70;;
77085;SDS011;66014;53.134;18.006;2023-10-31T14:04:44;5.50;;;3.00;;
77085;SDS011;66014;53.134;18.006;2023-10-31T14:07:12;4.20;;;2.70;;
77085;SDS011;66014;53.134;18.006;2023-10-31T14:09:48;3.60;;;2.20;;
77085;SDS011;66014;53.134;18.006;2023-10-31T14:12:14;3.90;;;2.30;;
77085;SDS011;66014;53.134;18.006;2023-10-31T14:14:43;4.90;;;2.40;;
77085;SDS011;66014;53.134;18.006;2023-10-31T14:17:09;5.30;;;2.40;;
77085;SDS011;66014;53.134;18.006;2023-10-31T14:19:36;4.00;;;2.20;;
77085;SDS011;66014;53.134;18.006;2023-10-31T14:22:02;4.90;;;1.80;;
77085;SDS011;66014;53.134;18.006;2023-10-31T14:24:29;4.30;;;2.10;;
77085;SDS011;66014;53.134;18.006;2023-10-31T14:26:57;3.50;;;1.80;;
77085;SDS011;66014;53.134;18.006;2023-10-31T14:29:25;3.90;;;2.60;;
77085;SDS011;66014;53.134;18.006;2023-10-31T14:31:51;3.90;;;2.30;;
77085;SDS011;66014;53.134;18.006;2023-10-31T14:34:20;3.60;;;2.00;;
77085;SDS011;66014;53.134;18.006;2023-10-31T14:36:48;3.60;;;2.00;;